Airfield :







YOU CAN JOIN US ON...

 
LOGIN :

Register | Disclaimer

   EN    FR    IT 

 









Legend :    VFR   Marginal VFR   IFR   Intensive IFR   Very Intensive IFR
Visi :
Ceiling :
>= 8 km
>= 3000ft
5 to 8 km
1000 to 3000 ft
1500m to 5 km
500 to 1000 ft
800 to 1500m
200 to 500 ft
< 800m
< 200 ft
Symbols :   Thunderstorms  Fog  Heavy snow  Heavy precipitations  Wind > 20 kt






- Airport Elevation : 76 ft
- IATA code : PWM


KPWM - Portland International Jetport

CURRENT METAR :
  • 280951Z 23009G17KT 10SM FEW050 M02/M13 A2960 RMK AO2 SLP023 T10221133

EXPIRED METARs :
  • 280851Z AUTO 24013G22KT 10SM FEW050 M02/M13 A2958 RMK AO2 SLP016 T10221133 51011
  • 280751Z AUTO 25011G24KT 10SM CLR M02/M13 A2957 RMK AO2 SLP014 T10171133

TAF KPWM
Valid from the 28 at 09:00 until the 29 at 06:00 UTC


280905Z 2809/2906 23012G22KT P6SM FEW050
FM281500 25017G26KT P6SM FEW250
FM290000 25009KT P6SM SKC



MET'MAP, your aeronautical weather chart ! - Copyright ORBIFLY December 2007 - Disclaimer

ORBIFLY MET'MAP TEAM :

Programming & Development : Alexandra Zaïnal
Concept & original design : Baudouin d'Aumeries
Assistance for programming : Marc-Olivier Méhu
Technical & hardware support : Manuel Goepfert

Contact : metmap@orbifly.com




SOURCES & CREDITS :

   NOAA